createdAt,value
2022-10-03T00:00:01.636Z,91.43
2022-10-03T00:05:23.871Z,85.35
2022-10-03T00:10:46.688Z,93.55
2022-10-03T00:15:42.884Z,83.20
2022-10-03T00:20:53.416Z,92.88
2022-10-03T00:25:49.600Z,87.55
2022-10-03T00:30:45.886Z,101.53
2022-10-03T00:35:58.832Z,97.35
2022-10-03T00:41:13.923Z,87.28
2022-10-03T00:46:13.181Z,87.95
2022-10-03T00:51:18.298Z,87.28
2022-10-03T00:56:26.540Z,76.68
2022-10-03T01:01:28.808Z,73.95
2022-10-03T01:06:39.630Z,76.30
2022-10-03T01:12:05.815Z,79.00
2022-10-03T01:17:04.819Z,77.65
2022-10-03T01:22:19.692Z,78.80
2022-10-03T01:27:25.214Z,76.35
2022-10-03T01:32:32.075Z,74.70
2022-10-03T01:37:51.373Z,77.15
2022-10-03T01:42:50.678Z,78.38
2022-10-03T01:47:51.315Z,77.55
2022-10-03T01:53:04.171Z,80.40
2022-10-03T01:58:07.471Z,84.50
2022-10-03T02:03:26.946Z,79.63
2022-10-03T02:08:28.741Z,78.65
2022-10-03T02:13:31.145Z,90.87
2022-10-03T02:18:36.239Z,90.38
2022-10-03T02:23:32.416Z,88.53
2022-10-03T02:28:34.843Z,86.57
2022-10-03T02:33:37.103Z,91.97
2022-10-03T02:38:52.182Z,87.60
2022-10-03T02:44:07.044Z,79.18
2022-10-03T02:49:21.826Z,83.40
2022-10-03T02:54:36.261Z,84.88
2022-10-03T02:59:44.260Z,87.18
2022-10-03T03:04:58.955Z,91.43
2022-10-03T03:09:55.126Z,88.90
2022-10-03T03:15:09.491Z,84.30
2022-10-03T03:20:05.710Z,85.30
2022-10-03T03:25:20.744Z,79.65
2022-10-03T03:30:19.144Z,84.75
2022-10-03T03:35:25.369Z,90.25
2022-10-03T03:40:32.272Z,95.80
2022-10-03T03:45:45.744Z,93.35
2022-10-03T03:50:47.778Z,92.30
2022-10-03T03:56:03.271Z,97.87
2022-10-03T04:01:08.547Z,100.40
2022-10-03T04:06:12.403Z,99.38
2022-10-03T04:11:08.547Z,94.63
2022-10-03T04:16:09.369Z,94.32
2022-10-03T04:21:06.924Z,91.10
2022-10-03T04:26:22.268Z,91.55
2022-10-03T04:31:19.573Z,97.07
2022-10-03T04:36:18.888Z,94.53
2022-10-03T04:41:23.293Z,93.50
2022-10-03T04:46:25.530Z,90.45
2022-10-03T04:51:44.937Z,93.88
2022-10-03T04:56:41.118Z,96.82
2022-10-03T05:01:44.698Z,96.45
2022-10-03T05:06:45.067Z,92.07
2022-10-03T05:11:41.619Z,97.45
2022-10-03T05:16:44.191Z,89.03
2022-10-03T05:21:46.225Z,95.72
2022-10-03T05:27:03.809Z,96.82
2022-10-03T05:32:00.651Z,91.60
2022-10-03T05:37:08.811Z,76.35
2022-10-03T05:42:22.068Z,89.80
2022-10-03T05:47:46.560Z,99.57
2022-10-03T05:52:52.756Z,105.25
2022-10-03T05:58:00.454Z,103.88
2022-10-03T06:02:57.674Z,103.65
2022-10-03T06:07:56.744Z,107.35
2022-10-03T06:13:06.501Z,107.15
2022-10-03T06:18:12.579Z,105.85
2022-10-03T06:23:27.496Z,110.03
2022-10-03T06:28:42.672Z,118.68
2022-10-03T06:33:48.165Z,120.38
2022-10-03T06:39:03.238Z,113.35
2022-10-03T06:44:05.388Z,114.90
2022-10-03T06:49:26.689Z,119.15
2022-10-03T06:54:31.887Z,110.90
2022-10-03T06:59:39.954Z,110.07
2022-10-03T07:04:38.995Z,89.82
2022-10-03T07:09:54.207Z,71.43
2022-10-03T07:14:50.440Z,73.97
2022-10-03T07:19:58.924Z,71.60
2022-10-03T07:24:55.183Z,72.32
2022-10-03T07:30:14.854Z,75.05
2022-10-03T07:35:49.734Z,74.78
2022-10-03T07:41:04.925Z,73.00
2022-10-03T07:46:20.237Z,73.68
2022-10-03T07:51:21.998Z,76.80
2022-10-03T07:56:37.161Z,80.60
2022-10-03T08:01:33.735Z,71.57
2022-10-03T08:06:38.681Z,67.97
2022-10-03T08:11:53.899Z,69.15
2022-10-03T08:16:52.991Z,65.15
2022-10-03T08:22:08.069Z,61.92
2022-10-03T08:27:04.370Z,59.97
2022-10-03T08:32:16.404Z,55.35
2022-10-03T08:37:27.860Z,45.65
2022-10-03T08:42:42.732Z,45.92
2022-10-03T08:47:48.165Z,31.48
2022-10-03T08:52:48.167Z,29.75
2022-10-03T08:57:47.528Z,26.25
2022-10-03T09:03:39.413Z,27.00
2022-10-03T09:08:41.234Z,24.30
2022-10-03T09:13:43.596Z,22.90
2022-10-03T09:18:46.605Z,20.65
2022-10-03T09:23:45.559Z,20.83
2022-10-03T09:28:50.594Z,19.90
2022-10-03T09:33:55.326Z,24.15
2022-10-03T09:39:01.100Z,20.35
2022-10-03T09:44:16.467Z,19.88
2022-10-03T09:49:18.668Z,17.77
2022-10-03T09:54:43.765Z,17.52
2022-10-03T09:59:52.970Z,22.50
2022-10-03T10:04:58.167Z,20.40
2022-10-03T10:10:21.108Z,22.88
2022-10-03T10:15:28.017Z,19.15
2022-10-03T10:20:24.330Z,15.27
2022-10-03T10:25:33.794Z,17.20
2022-10-03T10:30:29.946Z,16.55
2022-10-03T10:35:44.932Z,15.93
2022-10-03T10:41:03.686Z,15.45
2022-10-03T10:46:19.120Z,15.93
2022-10-03T10:51:34.912Z,15.70
2022-10-03T10:56:43.447Z,12.70
2022-10-03T11:02:03.922Z,15.02
2022-10-03T11:07:18.694Z,18.30
2022-10-03T11:12:37.610Z,18.10
2022-10-03T11:17:55.226Z,16.63
2022-10-03T11:23:07.075Z,13.85
2022-10-03T11:28:09.083Z,14.30
2022-10-03T11:33:25.679Z,14.63
2022-10-03T11:38:28.720Z,15.93
2022-10-03T11:43:48.280Z,15.63
2022-10-03T11:49:03.588Z,15.75
2022-10-03T11:54:30.620Z,17.40
2022-10-03T11:59:46.901Z,15.70
2022-10-03T12:04:46.871Z,15.40
2022-10-03T12:09:55.434Z,12.57
2022-10-03T12:14:52.530Z,12.68
2022-10-03T12:19:55.956Z,17.35
2022-10-03T12:24:55.888Z,24.85
2022-10-03T12:29:56.316Z,17.48
2022-10-03T12:34:52.613Z,17.50
2022-10-03T12:39:51.797Z,16.73
2022-10-03T12:45:03.536Z,15.90
2022-10-03T12:50:18.616Z,16.15
2022-10-03T12:55:29.329Z,15.68
2022-10-03T13:00:28.129Z,16.60
2022-10-03T13:05:29.956Z,18.50
2022-10-03T13:10:29.465Z,15.27
2022-10-03T13:15:44.631Z,20.92
2022-10-03T13:20:43.700Z,15.98
2022-10-03T13:25:40.607Z,19.08
2022-10-03T13:30:47.532Z,20.23
2022-10-03T13:35:58.681Z,15.82
2022-10-03T13:40:57.275Z,16.98
2022-10-03T13:45:56.865Z,19.70
2022-10-03T13:50:58.682Z,16.35
2022-10-03T13:56:01.562Z,21.50
2022-10-03T14:00:57.793Z,21.70
2022-10-03T14:06:17.428Z,19.23
2022-10-03T14:11:22.814Z,14.43
2022-10-03T14:16:22.754Z,12.27
2022-10-03T14:21:22.358Z,13.35
2022-10-03T14:26:22.057Z,15.25
2022-10-03T14:31:31.949Z,15.52
2022-10-03T14:36:31.029Z,14.75
2022-10-03T14:41:47.673Z,16.58
2022-10-03T14:46:49.659Z,16.55
2022-10-03T14:51:49.074Z,18.63
2022-10-03T14:56:47.276Z,17.23
2022-10-03T15:01:53.815Z,18.67
2022-10-03T15:06:54.376Z,18.35
2022-10-03T15:11:50.660Z,20.42
2022-10-03T15:16:56.524Z,22.92
2022-10-03T15:21:53.476Z,24.85
2022-10-03T15:26:51.576Z,24.42
2022-10-03T15:31:51.123Z,22.30
2022-10-03T15:36:54.162Z,19.80
2022-10-03T15:41:53.740Z,18.90
2022-10-03T15:46:54.826Z,17.75
2022-10-03T15:51:52.332Z,16.98
2022-10-03T15:56:53.456Z,19.63
2022-10-03T16:01:52.591Z,16.98
2022-10-03T16:06:59.516Z,17.95
2022-10-03T16:12:14.831Z,20.50
2022-10-03T16:17:17.258Z,22.80
2022-10-03T16:22:23.683Z,22.55
2022-10-03T16:27:22.464Z,26.35
2022-10-03T16:32:23.845Z,25.70
2022-10-03T16:37:22.669Z,27.00
2022-10-03T16:42:21.126Z,30.92
2022-10-03T16:47:19.268Z,35.08
2022-10-03T16:52:18.526Z,36.50
2022-10-03T16:57:17.071Z,41.05
2022-10-03T17:02:15.140Z,42.47
2022-10-03T17:07:15.442Z,46.30
2022-10-03T17:12:21.250Z,50.85
2022-10-03T17:17:26.458Z,52.50
2022-10-03T17:22:27.912Z,57.70
2022-10-03T17:27:24.227Z,60.90
2022-10-03T17:32:25.751Z,67.43
2022-10-03T17:37:34.209Z,59.90
2022-10-03T17:42:31.403Z,66.68
2022-10-03T17:47:35.119Z,74.53
2022-10-03T17:57:34.502Z,81.05
2022-10-03T18:02:51.310Z,80.60
2022-10-03T18:07:49.041Z,78.93
2022-10-03T18:12:48.046Z,88.47
2022-10-03T18:18:09.546Z,77.65
2022-10-03T18:23:09.826Z,76.15
2022-10-03T18:28:09.510Z,86.10
2022-10-03T18:33:12.083Z,84.55
2022-10-03T18:38:13.248Z,69.38
2022-10-03T18:43:22.009Z,76.45
2022-10-03T18:48:41.355Z,94.70
2022-10-03T18:53:39.463Z,91.80
2022-10-03T18:58:36.598Z,91.35
2022-10-03T19:03:46.496Z,87.47
2022-10-03T19:09:01.385Z,86.82
2022-10-03T19:13:57.726Z,88.72
2022-10-03T19:19:06.947Z,94.90
2022-10-03T19:24:11.844Z,87.63
2022-10-03T19:29:14.191Z,103.30
2022-10-03T19:34:26.884Z,106.80
2022-10-03T19:39:25.311Z,108.53
2022-10-03T19:44:24.563Z,103.07
2022-10-03T19:49:27.645Z,109.90
2022-10-03T19:54:28.643Z,97.97
2022-10-03T19:59:54.293Z,100.25
2022-10-03T20:04:51.647Z,104.97
2022-10-03T20:09:56.021Z,106.32
2022-10-03T20:14:52.456Z,112.40
2022-10-03T20:19:57.371Z,105.72
2022-10-03T20:24:53.847Z,94.35
2022-10-03T20:30:02.927Z,84.38
2022-10-03T20:34:59.508Z,101.32
2022-10-03T20:40:00.804Z,103.60
2022-10-03T20:45:00.091Z,107.35
2022-10-03T20:50:00.533Z,115.63
2022-10-03T20:55:00.743Z,110.10
2022-10-03T21:00:15.305Z,116.28
2022-10-03T21:05:14.449Z,109.43
2022-10-03T21:10:25.769Z,106.38
2022-10-03T21:15:22.011Z,107.28
2022-10-03T21:20:20.415Z,116.43
2022-10-03T21:25:20.235Z,107.25
2022-10-03T21:30:22.120Z,101.32
2022-10-03T21:35:29.259Z,107.63
2022-10-03T21:40:28.296Z,103.22
2022-10-03T21:45:43.266Z,111.70
2022-10-03T21:50:53.283Z,112.82
2022-10-03T21:56:08.698Z,118.63
2022-10-03T22:01:14.590Z,115.75
2022-10-03T22:06:34.511Z,112.63
2022-10-03T22:11:49.902Z,125.80
2022-10-03T22:17:04.801Z,121.63
2022-10-03T22:22:20.328Z,117.45
2022-10-03T22:27:20.591Z,121.15
2022-10-03T22:32:21.890Z,120.85
2022-10-03T22:37:18.194Z,111.18
2022-10-03T22:42:14.904Z,113.78
2022-10-03T22:47:14.888Z,119.00
2022-10-03T22:52:17.110Z,118.90
2022-10-03T22:57:13.887Z,117.80
2022-10-03T23:02:10.229Z,113.47
2022-10-03T23:07:12.595Z,104.28
2022-10-03T23:12:10.074Z,100.75
2022-10-03T23:17:24.818Z,103.88
2022-10-03T23:22:24.272Z,95.07
2022-10-03T23:27:26.372Z,103.38
2022-10-03T23:32:42.546Z,97.10
2022-10-03T23:37:40.602Z,100.32
2022-10-03T23:42:43.702Z,102.47
2022-10-03T23:47:45.037Z,100.60
2022-10-03T23:52:44.514Z,97.32
2022-10-03T23:57:42.367Z,101.75
